Time;durP1;ratioP1;P1;durP2;ratioP2;P2;SDS_P1;SDS_P2;PMS_P1;PMS_P2;Temp;Humidity;BMP_temperature;BMP_pressure;BME280_temperature;BME280_humidity;BME280_pressure;Samples;Min_cycle;Max_cycle;Signal;HPM_P1;HPM_P2
2022/08/18 00:01:03;;;;;;;;;;;;;;;25.81;65.25;100593.28;5001111;28;4200;-62
2022/08/18 00:03:30;;;;;;;;;;;;;;;25.81;65.22;100592.53;5001268;28;4234;-62
2022/08/18 00:06:17;;;;;;;;;;;;;;;25.81;65.22;100587.47;5000900;28;4357;-61
2022/08/18 00:08:43;;;;;;;;;;;;;;;25.80;65.06;100588.91;5000604;28;4156;-61
2022/08/18 00:11:09;;;;;;;;;;;;;;;25.80;65.00;100591.09;4998605;28;4313;-61
2022/08/18 00:13:36;;;;;;;;;;;;;;;25.80;65.05;100579.47;4999952;28;4191;-61
2022/08/18 00:16:02;;;;;;;;;;;;;;;25.79;65.16;100578.72;5000704;28;4270;-61
2022/08/18 00:18:29;;;;;;;;;;;;;;;25.79;65.02;100578.72;4996550;28;5765;-61
2022/08/18 00:20:55;;;;;;;;;;;;;;;25.78;65.02;100574.38;4999854;28;4701;-61
2022/08/18 00:23:22;;;;;;;;;;;;;;;25.80;64.84;100579.47;5000198;28;4220;-61
2022/08/18 00:25:49;;;;;;;;;;;;;;;25.79;65.08;100572.91;4998606;28;4521;-61
2022/08/18 00:28:15;;;;;;;;;;;;;;;25.81;65.17;100580.94;5000318;28;4109;-61
2022/08/18 00:30:42;;;;;;;;;;;;;;;25.80;65.43;100574.41;4997943;28;5569;-62
2022/08/18 00:33:08;;;;;;;;;;;;;;;25.80;65.47;100571.50;5001086;28;4442;-61
2022/08/18 00:35:35;;;;;;;;;;;;;;;25.80;65.43;100559.91;4996229;28;4169;-61
2022/08/18 00:38:02;;;;;;;;;;;;;;;25.79;65.65;100561.31;4999683;28;4186;-61
2022/08/18 00:40:29;;;;;;;;;;;;;;;25.80;65.71;100562.06;4999079;28;4070;-61
2022/08/18 00:43:03;;;;;;;;;;;;;;;25.80;65.54;100556.28;5000177;28;5285;-61
2022/08/18 00:45:33;;;;;;;;;;;;;;;25.80;65.65;100564.97;4999520;28;4151;-61
2022/08/18 00:47:59;;;;;;;;;;;;;;;25.79;65.50;100567.13;5000325;28;5404;-61
2022/08/18 00:50:40;;;;;;;;;;;;;;;25.79;65.72;100567.13;5000161;28;4276;-61
2022/08/18 00:53:09;;;;;;;;;;;;;;;25.79;65.58;100561.31;4999447;28;4172;-61
2022/08/18 00:55:36;;;;;;;;;;;;;;;25.79;65.48;100572.91;5000613;28;5400;-61
2022/08/18 00:58:08;;;;;;;;;;;;;;;25.80;65.42;100562.81;4998869;28;4198;-61
2022/08/18 01:00:34;;;;;;;;;;;;;;;25.78;65.44;100559.88;4998978;28;4538;-61
2022/08/18 01:03:02;;;;;;;;;;;;;;;25.79;65.23;100561.31;4999630;28;4662;-62
2022/08/18 01:05:32;;;;;;;;;;;;;;;25.78;65.39;100551.16;4999071;28;5676;-61
2022/08/18 01:07:59;;;;;;;;;;;;;;;25.79;65.21;100560.59;4997344;28;4525;-62
2022/08/18 01:10:25;;;;;;;;;;;;;;;25.79;65.27;100555.53;4998406;28;4242;-61
2022/08/18 01:12:52;;;;;;;;;;;;;;;25.79;65.12;100561.31;4996829;28;4181;-61
2022/08/18 01:15:19;;;;;;;;;;;;;;;25.78;65.35;100554.06;4999124;28;4222;-61
2022/08/18 01:23:31;;;;;;;;;;;;;;;25.79;65.58;100555.53;4998312;28;4492;-61
2022/08/18 01:26:03;;;;;;;;;;;;;;;25.78;65.61;100567.84;4998728;28;4163;-61
2022/08/18 01:28:30;;;;;;;;;;;;;;;25.78;65.47;100567.84;4994659;28;4202;-61
2022/08/18 01:30:59;;;;;;;;;;;;;;;25.77;65.52;100567.09;4994211;28;4157;-61
2022/08/18 01:33:36;;;;;;;;;;;;;;;25.77;65.82;100564.22;4996041;28;5513;-61
2022/08/18 01:36:15;;;;;;;;;;;;;;;25.78;65.94;100562.75;4998527;28;4154;-61
2022/08/18 01:38:42;;;;;;;;;;;;;;;25.77;65.60;100558.41;4998270;28;4036;-61
2022/08/18 01:41:08;;;;;;;;;;;;;;;25.78;65.64;100564.94;4998694;28;4206;-61
2022/08/18 01:43:55;;;;;;;;;;;;;;;25.76;65.63;100559.09;4998817;28;4356;-61
2022/08/18 01:46:22;;;;;;;;;;;;;;;25.76;65.61;100562.72;4999121;28;4046;-61
2022/08/18 01:48:48;;;;;;;;;;;;;;;25.76;65.78;100553.28;4998698;28;4448;-61
2022/08/18 01:51:14;;;;;;;;;;;;;;;25.76;65.94;100562.00;4999757;28;3972;-61
2022/08/18 01:53:41;;;;;;;;;;;;;;;25.76;65.73;100551.13;4997863;28;5370;-61
2022/08/18 01:56:08;;;;;;;;;;;;;;;25.76;65.55;100545.31;4999548;28;4077;-61
2022/08/18 01:58:34;;;;;;;;;;;;;;;25.72;65.43;100527.84;4997314;28;4040;-61
2022/08/18 02:01:01;;;;;;;;;;;;;;;25.75;65.61;100535.16;4998661;28;4096;-61
2022/08/18 02:03:30;;;;;;;;;;;;;;;25.73;65.60;100529.31;4999378;28;4114;-61
2022/08/18 02:05:59;;;;;;;;;;;;;;;25.73;65.56;100523.53;4999401;28;4131;-61
2022/08/18 02:08:26;;;;;;;;;;;;;;;25.73;65.45;100514.81;4998066;28;4109;-61
2022/08/18 02:10:54;;;;;;;;;;;;;;;25.73;65.56;100520.63;4998252;28;4122;-61
2022/08/18 02:13:20;;;;;;;;;;;;;;;25.73;65.54;100511.91;4998917;28;4351;-61
2022/08/18 02:15:46;;;;;;;;;;;;;;;25.73;65.33;100517.72;4996657;28;4134;-61
2022/08/18 02:18:14;;;;;;;;;;;;;;;25.72;65.22;100513.34;4998655;28;4091;-62
2022/08/18 02:21:27;;;;;;;;;;;;;;;25.73;65.24;100517.00;4997634;28;4142;-61
2022/08/18 02:23:53;;;;;;;;;;;;;;;25.73;65.19;100517.00;4995807;28;5674;-60
2022/08/18 02:26:19;;;;;;;;;;;;;;;25.73;65.16;100532.22;4998816;28;4212;-61
2022/08/18 02:28:46;;;;;;;;;;;;;;;25.71;65.30;100517.69;4997301;28;5245;-60
2022/08/18 02:31:13;;;;;;;;;;;;;;;25.71;65.21;100520.59;4998145;28;4128;-60
2022/08/18 02:33:39;;;;;;;;;;;;;;;25.71;65.00;100511.88;4998431;28;4111;-60
2022/08/18 02:36:17;;;;;;;;;;;;;;;25.71;65.01;100514.78;4998247;28;4127;-61
2022/08/18 02:38:43;;;;;;;;;;;;;;;25.70;64.93;100508.25;4997974;28;4133;-61
2022/08/18 02:41:20;;;;;;;;;;;;;;;25.71;64.93;100520.59;4998030;28;3985;-61
2022/08/18 02:43:47;;;;;;;;;;;;;;;25.70;64.90;100524.91;5002621;28;4152;-61
2022/08/18 02:46:13;;;;;;;;;;;;;;;25.70;64.82;100531.44;5002289;28;4186;-61
2022/08/18 02:48:40;;;;;;;;;;;;;;;25.70;64.94;100519.09;5002303;28;5265;-61
2022/08/18 02:51:08;;;;;;;;;;;;;;;25.70;64.91;100524.91;5001868;28;4219;-60
2022/08/18 02:53:34;;;;;;;;;;;;;;;25.70;64.91;100524.91;5002154;28;4172;-61
2022/08/18 02:56:27;;;;;;;;;;;;;;;25.70;64.86;100519.09;5002104;28;4535;-61
2022/08/18 02:59:06;;;;;;;;;;;;;;;25.68;64.82;100511.13;5002302;28;4434;-61
2022/08/18 03:01:33;;;;;;;;;;;;;;;25.69;64.96;100524.16;5001939;28;5179;-60
2022/08/18 03:04:00;;;;;;;;;;;;;;;25.68;64.85;100513.28;5001975;28;4223;-61
2022/08/18 03:06:26;;;;;;;;;;;;;;;25.69;64.82;100517.66;5003085;28;5126;-61
2022/08/18 03:08:53;;;;;;;;;;;;;;;25.68;64.83;100519.09;5002177;28;5419;-61
2022/08/18 03:11:21;;;;;;;;;;;;;;;25.69;64.72;100523.44;5002088;28;5507;-61
2022/08/18 03:13:47;;;;;;;;;;;;;;;25.68;64.71;100521.97;5001241;28;4467;-61
2022/08/18 03:16:14;;;;;;;;;;;;;;;25.68;64.72;100528.50;5002752;28;4250;-61
2022/08/18 03:18:41;;;;;;;;;;;;;;;25.67;64.52;100529.94;5001465;28;4206;-61
2022/08/18 03:21:08;;;;;;;;;;;;;;;25.68;64.71;100536.47;5002362;28;5345;-61
2022/08/18 03:23:35;;;;;;;;;;;;;;;25.67;64.61;100526.28;5001511;28;5378;-61
2022/08/18 03:26:01;;;;;;;;;;;;;;;25.67;64.59;100526.28;5002260;28;4202;-61
2022/08/18 03:28:27;;;;;;;;;;;;;;;25.68;64.75;100527.78;5000062;28;5257;-61
2022/08/18 03:30:54;;;;;;;;;;;;;;;25.66;64.60;100521.94;5002428;28;4218;-61
2022/08/18 03:33:20;;;;;;;;;;;;;;;25.66;64.75;100513.97;5001753;28;4104;-61
2022/08/18 03:35:47;;;;;;;;;;;;;;;25.66;64.61;100513.97;5000327;28;3981;-61
2022/08/18 03:38:13;;;;;;;;;;;;;;;25.66;64.59;100521.94;5000570;28;4067;-61
2022/08/18 03:40:41;;;;;;;;;;;;;;;25.66;64.60;100536.44;5001650;28;4098;-61
2022/08/18 03:43:08;;;;;;;;;;;;;;;25.65;64.55;100535.69;5001355;28;4254;-61
2022/08/18 03:45:54;;;;;;;;;;;;;;;25.65;64.52;100544.38;5000712;28;4144;-61
2022/08/18 03:48:20;;;;;;;;;;;;;;;25.65;64.57;100532.06;5001684;28;5263;-61
2022/08/18 03:50:47;;;;;;;;;;;;;;;25.65;64.42;100537.84;5000446;28;3980;-61
2022/08/18 03:53:13;;;;;;;;;;;;;;;25.65;64.32;100537.84;5001822;28;4249;-61
2022/08/18 03:55:40;;;;;;;;;;;;;;;25.64;64.58;100534.22;5001183;28;4269;-61
2022/08/18 03:58:07;;;;;;;;;;;;;;;25.63;64.33;100532.78;5001340;28;4226;-61
2022/08/18 04:00:36;;;;;;;;;;;;;;;25.64;64.59;100534.22;5001336;28;4135;-61
2022/08/18 04:03:03;;;;;;;;;;;;;;;25.64;64.25;100536.41;5001154;28;5176;-61
2022/08/18 04:05:29;;;;;;;;;;;;;;;25.64;64.33;100539.31;5000935;28;4356;-61
2022/08/18 04:07:58;;;;;;;;;;;;;;;25.64;64.39;100542.19;5001384;28;5515;-61
2022/08/18 04:10:25;;;;;;;;;;;;;;;25.63;64.33;100537.81;5000504;28;4207;-60
2022/08/18 04:12:51;;;;;;;;;;;;;;;25.63;64.22;100543.63;4999768;28;5127;-60
2022/08/18 04:15:18;;;;;;;;;;;;;;;25.62;64.28;100556.66;5000455;28;5495;-60
2022/08/18 04:17:45;;;;;;;;;;;;;;;25.61;64.32;100549.38;4999851;28;4613;-60
2022/08/18 04:20:31;;;;;;;;;;;;;;;25.63;64.27;100543.63;4999714;28;5324;-61
2022/08/18 04:22:58;;;;;;;;;;;;;;;25.63;64.12;100549.41;5000658;28;4200;-60
2022/08/18 04:25:25;;;;;;;;;;;;;;;25.62;64.13;100553.75;5001131;28;4152;-61
2022/08/18 04:28:00;;;;;;;;;;;;;;;25.62;64.21;100556.66;4999362;28;4313;-60
2022/08/18 04:30:27;;;;;;;;;;;;;;;25.60;64.23;100556.59;5001182;28;5294;-61
2022/08/18 04:32:54;;;;;;;;;;;;;;;25.62;64.22;100550.84;4999563;28;4204;-60
2022/08/18 04:35:22;;;;;;;;;;;;;;;25.61;64.30;100546.47;5000790;28;6458;-61
2022/08/18 04:37:48;;;;;;;;;;;;;;;25.58;64.13;100542.06;5000629;28;4328;-60
2022/08/18 04:40:15;;;;;;;;;;;;;;;25.60;64.07;100545.75;5000189;28;4067;-60
2022/08/18 04:42:46;;;;;;;;;;;;;;;25.60;64.16;100550.81;5000160;28;4113;-60
2022/08/18 04:45:13;;;;;;;;;;;;;;;25.59;63.94;100549.34;5000362;28;4137;-61
2022/08/18 04:47:40;;;;;;;;;;;;;;;25.59;63.92;100549.34;4999537;28;5238;-60
2022/08/18 04:50:07;;;;;;;;;;;;;;;25.59;63.89;100555.16;5000948;28;4209;-60
2022/08/18 04:55:18;;;;;;;;;;;;;;;25.59;63.90;100555.16;4999623;28;5460;-60
2022/08/18 04:57:45;;;;;;;;;;;;;;;25.59;63.90;100555.16;4999465;28;4151;-61
2022/08/18 05:00:12;;;;;;;;;;;;;;;25.59;63.93;100558.06;5000157;28;4313;-60
2022/08/18 05:02:39;;;;;;;;;;;;;;;25.58;63.75;100551.50;4998946;28;4230;-61
2022/08/18 05:05:05;;;;;;;;;;;;;;;25.59;63.96;100560.94;4999420;28;4711;-61
2022/08/18 05:07:32;;;;;;;;;;;;;;;25.58;63.91;100559.47;4999851;28;4272;-60
2022/08/18 05:09:58;;;;;;;;;;;;;;;25.58;63.85;100559.47;4999286;28;4131;-61
2022/08/18 05:12:25;;;;;;;;;;;;;;;25.58;63.65;100559.47;4999934;28;4606;-60
2022/08/18 05:14:52;;;;;;;;;;;;;;;25.57;63.71;100564.53;5000095;28;4222;-60
2022/08/18 05:17:19;;;;;;;;;;;;;;;25.58;63.76;100573.97;5000480;28;4211;-60
2022/08/18 05:19:45;;;;;;;;;;;;;;;25.58;63.78;100571.06;4998845;28;4285;-60
2022/08/18 05:22:16;;;;;;;;;;;;;;;25.58;63.89;100571.78;4999200;28;4236;-60
2022/08/18 05:24:43;;;;;;;;;;;;;;;25.58;63.77;100577.59;4999534;28;4149;-61
2022/08/18 05:27:10;;;;;;;;;;;;;;;25.58;63.76;100577.59;4999766;28;4159;-60
2022/08/18 05:29:37;;;;;;;;;;;;;;;25.59;63.63;100584.16;4999559;28;4386;-60
2022/08/18 05:32:11;;;;;;;;;;;;;;;25.59;63.73;100587.03;5000600;28;5800;-60
2022/08/18 05:34:58;;;;;;;;;;;;;;;25.59;63.68;100589.94;4999393;28;5677;-60
2022/08/18 05:37:31;;;;;;;;;;;;;;;25.59;63.61;100598.63;4999514;28;4292;-60
2022/08/18 05:40:02;;;;;;;;;;;;;;;25.60;63.67;100614.59;4998827;28;4254;-60
2022/08/18 05:42:36;;;;;;;;;;;;;;;25.59;63.71;100613.13;4998419;28;4372;-60
2022/08/18 05:45:04;;;;;;;;;;;;;;;25.59;63.85;100616.03;4998545;28;4222;-60
2022/08/18 05:47:31;;;;;;;;;;;;;;;25.60;63.78;100615.31;4998905;28;4088;-60
2022/08/18 05:50:02;;;;;;;;;;;;;;;25.60;63.77;100609.53;4999088;28;4396;-60
2022/08/18 05:52:47;;;;;;;;;;;;;;;25.60;63.70;100603.00;4998561;28;5480;-61
2022/08/18 05:58:05;;;;;;;;;;;;;;;25.60;63.81;100608.78;4997574;28;4186;-60
2022/08/18 06:00:32;;;;;;;;;;;;;;;25.60;63.74;100614.59;4998189;28;4148;-60
2022/08/18 06:03:01;;;;;;;;;;;;;;;25.60;63.87;100617.50;4998212;28;4154;-60
2022/08/18 06:05:29;;;;;;;;;;;;;;;25.60;63.77;100623.28;4998200;28;4132;-61
2022/08/18 06:07:57;;;;;;;;;;;;;;;25.59;63.74;100619.66;4998272;28;4197;-61
2022/08/18 06:10:25;;;;;;;;;;;;;;;25.60;63.84;100623.28;4998751;28;5219;-61
2022/08/18 06:12:52;;;;;;;;;;;;;;;25.60;63.81;100626.19;4998535;28;4220;-60
2022/08/18 06:15:24;;;;;;;;;;;;;;;25.59;63.94;100616.78;4999247;28;4141;-60
2022/08/18 06:17:54;;;;;;;;;;;;;;;25.60;63.75;100608.78;4997750;28;5441;-60
2022/08/18 06:20:33;;;;;;;;;;;;;;;25.59;63.78;100613.88;4998772;28;4206;-60
2022/08/18 06:23:31;;;;;;;;;;;;;;;25.60;63.92;100614.59;4998947;28;4231;-60
2022/08/18 06:26:09;;;;;;;;;;;;;;;25.61;63.87;100616.06;4967159;28;4541;-60
2022/08/18 06:28:43;;;;;;;;;;;;;;;25.59;63.94;100608.06;4998569;28;5244;-60
2022/08/18 06:31:17;;;;;;;;;;;;;;;25.59;63.93;100607.34;4998382;28;4005;-60
2022/08/18 06:33:49;;;;;;;;;;;;;;;25.59;63.80;100613.88;4997739;28;4598;-60
2022/08/18 06:36:31;;;;;;;;;;;;;;;25.59;63.87;100613.13;4998815;28;5251;-60
2022/08/18 06:39:00;;;;;;;;;;;;;;;25.59;63.76;100610.25;4997823;28;4483;-59
2022/08/18 06:41:37;;;;;;;;;;;;;;;25.59;63.84;100618.94;4998882;28;4468;-60
2022/08/18 06:44:21;;;;;;;;;;;;;;;25.59;63.82;100625.47;4998303;28;4258;-59
2022/08/18 06:47:08;;;;;;;;;;;;;;;25.59;63.79;100618.94;4997181;28;4210;-59
2022/08/18 06:49:39;;;;;;;;;;;;;;;25.58;63.77;100618.19;4997679;28;4294;-59
2022/08/18 06:52:25;;;;;;;;;;;;;;;25.59;63.69;100613.88;4998279;28;4219;-59
2022/08/18 06:54:52;;;;;;;;;;;;;;;25.59;63.85;100618.94;4997643;28;6426;-59
2022/08/18 06:57:38;;;;;;;;;;;;;;;25.59;63.83;100621.84;4998515;28;4144;-59
2022/08/18 07:00:10;;;;;;;;;;;;;;;25.60;63.84;100626.19;4997709;28;5193;-59
2022/08/18 07:02:38;;;;;;;;;;;;;;;25.59;63.81;100622.56;4997985;28;4206;-59
2022/08/18 07:05:13;;;;;;;;;;;;;;;25.59;63.82;100627.63;4996985;28;5718;-59
2022/08/18 07:07:40;;;;;;;;;;;;;;;25.59;64.00;100619.66;4998447;28;4559;-60
2022/08/18 07:10:27;;;;;;;;;;;;;;;25.59;63.94;100621.84;4998657;28;4438;-60
2022/08/18 07:13:13;;;;;;;;;;;;;;;25.58;63.88;100623.25;4998211;28;4377;-59
2022/08/18 07:15:42;;;;;;;;;;;;;;;25.58;63.94;100615.28;4997996;28;4407;-60
2022/08/18 07:18:09;;;;;;;;;;;;;;;25.58;63.81;100623.25;4997739;28;4197;-59
2022/08/18 07:20:45;;;;;;;;;;;;;;;25.59;63.80;100624.75;4997955;28;4465;-60
2022/08/18 07:23:24;;;;;;;;;;;;;;;25.58;63.78;100623.25;4998280;28;4230;-60
2022/08/18 07:25:52;;;;;;;;;;;;;;;25.59;63.73;100624.75;4997483;28;5210;-60
2022/08/18 07:28:32;;;;;;;;;;;;;;;25.58;63.79;100618.19;4997885;28;4372;-60
2022/08/18 07:31:12;;;;;;;;;;;;;;;25.58;63.82;100623.25;5001255;28;4170;-59
2022/08/18 07:33:43;;;;;;;;;;;;;;;25.58;63.94;100620.34;5000516;28;4185;-60
2022/08/18 07:36:10;;;;;;;;;;;;;;;25.58;63.75;100623.97;5001651;28;4259;-60
2022/08/18 07:38:38;;;;;;;;;;;;;;;25.57;63.83;100625.41;4999152;28;4157;-60
2022/08/18 07:41:13;;;;;;;;;;;;;;;25.58;63.80;100623.25;5001272;28;4564;-59
2022/08/18 07:43:52;;;;;;;;;;;;;;;25.58;63.89;100629.03;5000470;28;5120;-60
2022/08/18 07:46:31;;;;;;;;;;;;;;;25.57;63.83;100631.22;5006322;28;5234;-59
2022/08/18 07:48:58;;;;;;;;;;;;;;;25.57;63.72;100631.22;5001394;28;4306;-59
2022/08/18 07:51:43;;;;;;;;;;;;;;;25.57;63.73;100634.13;5000531;28;4257;-60
2022/08/18 07:54:18;;;;;;;;;;;;;;;25.60;63.68;100641.44;5000765;28;5887;-59
2022/08/18 07:57:05;;;;;;;;;;;;;;;25.59;63.73;100636.34;5001155;28;4177;-60
2022/08/18 07:59:50;;;;;;;;;;;;;;;25.59;63.65;100645.03;5000868;28;5347;-60
2022/08/18 08:02:16;;;;;;;;;;;;;;;25.60;63.74;100637.78;5000688;28;4210;-60
2022/08/18 08:05:01;;;;;;;;;;;;;;;25.60;63.73;100644.31;5001166;28;4632;-60
2022/08/18 08:07:31;;;;;;;;;;;;;;;25.60;63.79;100652.28;5000451;28;4085;-61
2022/08/18 08:10:12;;;;;;;;;;;;;;;25.59;63.85;100645.03;5004699;28;4155;-60
2022/08/18 08:12:41;;;;;;;;;;;;;;;25.60;63.91;100652.28;4999642;28;4140;-60
2022/08/18 08:15:11;;;;;;;;;;;;;;;25.60;63.72;100655.19;5000316;28;4090;-60
2022/08/18 08:17:58;;;;;;;;;;;;;;;25.60;63.76;100661.00;5000258;28;5382;-60
2022/08/18 08:20:26;;;;;;;;;;;;;;;25.60;63.61;100666.78;4990173;28;5588;-60
2022/08/18 08:23:04;;;;;;;;;;;;;;;25.61;63.80;100656.66;4999822;28;6247;-60
2022/08/18 08:25:36;;;;;;;;;;;;;;;25.63;63.77;100659.59;5000198;28;5224;-60
2022/08/18 08:28:36;;;;;;;;;;;;;;;25.61;63.82;100659.56;5000365;28;5479;-60
2022/08/18 08:31:10;;;;;;;;;;;;;;;25.60;63.72;100655.91;5000240;28;5533;-60
2022/08/18 08:33:58;;;;;;;;;;;;;;;25.62;63.72;100658.88;5000356;28;5447;-60
2022/08/18 08:36:32;;;;;;;;;;;;;;;25.60;63.74;100658.81;4999939;28;4096;-60
2022/08/18 08:39:04;;;;;;;;;;;;;;;25.61;63.70;100662.44;4999131;28;3945;-60
2022/08/18 08:41:38;;;;;;;;;;;;;;;25.61;63.70;100656.66;4999441;28;4311;-60
2022/08/18 08:44:07;;;;;;;;;;;;;;;25.60;63.69;100661.00;5000473;28;4514;-60
2022/08/18 08:46:38;;;;;;;;;;;;;;;25.60;63.70;100666.78;4998754;28;4647;-60
2022/08/18 08:49:06;;;;;;;;;;;;;;;25.59;63.90;100666.06;5000564;28;4250;-60
2022/08/18 08:51:37;;;;;;;;;;;;;;;25.61;63.76;100656.66;5004509;28;4169;-60
2022/08/18 08:54:13;;;;;;;;;;;;;;;25.59;63.79;100662.44;4999821;28;4337;-60
2022/08/18 08:56:41;;;;;;;;;;;;;;;25.59;63.85;100656.63;5000034;28;4425;-60
2022/08/18 08:59:11;;;;;;;;;;;;;;;25.58;63.87;100647.19;4999475;28;4694;-60
2022/08/18 09:01:46;;;;;;;;;;;;;;;25.58;63.82;100646.44;4999732;28;4425;-60
2022/08/18 09:04:29;;;;;;;;;;;;;;;25.59;63.89;100647.94;5000109;28;4553;-60
2022/08/18 09:07:04;;;;;;;;;;;;;;;25.59;63.84;100639.22;4999439;28;4485;-60
2022/08/18 09:09:46;;;;;;;;;;;;;;;25.58;64.02;100634.84;4998991;28;4147;-60
2022/08/18 09:12:28;;;;;;;;;;;;;;;25.58;63.95;100640.66;4999936;28;4521;-60
2022/08/18 09:15:11;;;;;;;;;;;;;;;25.59;63.82;100637.06;5000063;28;4685;-61
2022/08/18 09:17:40;;;;;;;;;;;;;;;25.57;63.97;100634.13;4999147;28;4216;-60
2022/08/18 09:20:12;;;;;;;;;;;;;;;25.58;63.95;100631.94;5004224;28;4295;-60
2022/08/18 09:22:44;;;;;;;;;;;;;;;25.58;64.00;100629.78;4999195;28;5225;-60
2022/08/18 09:25:27;;;;;;;;;;;;;;;25.58;63.97;100620.34;4999864;28;4212;-60
2022/08/18 09:28:05;;;;;;;;;;;;;;;25.58;63.89;100629.03;4999479;28;4380;-61
2022/08/18 09:30:39;;;;;;;;;;;;;;;25.57;63.87;100616.72;4999107;28;4072;-61
2022/08/18 09:33:18;;;;;;;;;;;;;;;25.59;63.85;100619.66;4999490;28;5853;-60
2022/08/18 09:36:05;;;;;;;;;;;;;;;25.58;63.93;100617.44;4997788;28;5226;-60
2022/08/18 09:41:31;;;;;;;;;;;;;;;25.58;63.94;100614.56;4999864;28;4127;-60
2022/08/18 09:44:08;;;;;;;;;;;;;;;25.58;63.84;100612.38;4999611;28;4443;-60
2022/08/18 09:46:46;;;;;;;;;;;;;;;25.58;63.86;100605.84;4998826;28;4139;-61
2022/08/18 09:49:22;;;;;;;;;;;;;;;25.56;63.94;100602.91;5000223;28;4235;-60
2022/08/18 09:51:52;;;;;;;;;;;;;;;25.58;63.94;100602.97;4998613;28;4344;-60
2022/08/18 09:54:19;;;;;;;;;;;;;;;25.59;63.91;100604.44;4999802;28;4398;-60
2022/08/18 09:56:48;;;;;;;;;;;;;;;25.58;63.94;100605.84;4999205;28;4207;-61
2022/08/18 09:59:32;;;;;;;;;;;;;;;25.58;63.93;100608.75;4998503;28;4234;-60
2022/08/18 10:02:00;;;;;;;;;;;;;;;25.58;63.83;100606.59;4998943;28;4286;-61
2022/08/18 10:04:32;;;;;;;;;;;;;;;25.59;63.86;100599.38;4998336;28;5262;-61
2022/08/18 10:07:18;;;;;;;;;;;;;;;25.59;63.86;100595.75;4998699;28;5388;-61
2022/08/18 10:09:51;;;;;;;;;;;;;;;25.59;63.91;100584.88;4996606;28;4172;-61
2022/08/18 10:12:27;;;;;;;;;;;;;;;25.60;63.88;100582.69;4998320;28;4938;-61
2022/08/18 10:14:57;;;;;;;;;;;;;;;25.60;63.99;100585.59;4999181;28;4230;-60
2022/08/18 10:17:29;;;;;;;;;;;;;;;25.59;63.98;100584.88;4999027;28;4161;-60
2022/08/18 10:20:08;;;;;;;;;;;;;;;25.60;63.79;100585.59;4998216;28;4163;-60
2022/08/18 10:22:52;;;;;;;;;;;;;;;25.61;63.84;100592.88;4998768;28;4186;-61
2022/08/18 10:25:35;;;;;;;;;;;;;;;25.60;63.80;100592.13;4999069;28;5322;-61
2022/08/18 10:28:04;;;;;;;;;;;;;;;25.60;63.82;100597.94;4998991;28;4373;-61
2022/08/18 10:30:33;;;;;;;;;;;;;;;25.60;63.91;100597.19;4997930;28;4140;-60
2022/08/18 10:33:38;;;;;;;;;;;;;;;25.62;63.83;100594.34;4998084;28;4138;-60
2022/08/18 10:36:04;;;;;;;;;;;;;;;25.61;63.86;100592.88;4998413;28;4127;-61
2022/08/18 10:38:36;;;;;;;;;;;;;;;25.60;63.77;100591.41;4997983;28;4221;-60
2022/08/18 10:41:06;;;;;;;;;;;;;;;25.61;63.90;100595.75;4999035;28;5410;-61
2022/08/18 10:43:41;;;;;;;;;;;;;;;25.60;63.75;100592.13;4999069;28;5564;-60
2022/08/18 10:46:22;;;;;;;;;;;;;;;25.61;63.69;100592.88;4998069;28;4907;-60
2022/08/18 10:48:57;;;;;;;;;;;;;;;25.61;63.71;100587.06;4997622;28;4280;-61
2022/08/18 10:51:28;;;;;;;;;;;;;;;25.62;63.83;100579.84;4998692;28;4164;-61
2022/08/18 10:54:21;;;;;;;;;;;;;;;25.62;63.90;100583.47;4996822;28;4170;-61
2022/08/18 10:56:51;;;;;;;;;;;;;;;25.62;63.90;100577.69;4997117;28;4457;-61
2022/08/18 10:59:24;;;;;;;;;;;;;;;25.62;63.75;100576.94;4999082;28;4255;-61
2022/08/18 11:01:55;;;;;;;;;;;;;;;25.63;63.69;100572.59;4998407;28;4235;-60
2022/08/18 11:04:24;;;;;;;;;;;;;;;25.63;63.89;100566.81;5001445;28;4212;-61
2022/08/18 11:07:01;;;;;;;;;;;;;;;25.63;63.67;100561.00;5001719;28;5556;-60
2022/08/18 11:09:33;;;;;;;;;;;;;;;25.63;63.73;100558.88;5001903;28;4156;-61
2022/08/18 11:11:59;;;;;;;;;;;;;;;25.62;63.76;100560.28;5002303;28;5388;-60
2022/08/18 11:14:40;;;;;;;;;;;;;;;25.64;63.71;100565.41;5001726;28;4228;-64
2022/08/18 11:17:21;;;;;;;;;;;;;;;25.64;63.77;100568.28;5001545;28;4381;-61
2022/08/18 11:19:49;;;;;;;;;;;;;;;25.64;63.83;100565.41;5001442;28;5463;-60
2022/08/18 11:22:29;;;;;;;;;;;;;;;25.63;63.86;100570.47;5002453;28;4176;-60
2022/08/18 11:24:59;;;;;;;;;;;;;;;25.64;63.69;100569.03;5001842;28;4202;-60
2022/08/18 11:27:35;;;;;;;;;;;;;;;25.64;63.88;100571.19;5001380;28;5496;-60
2022/08/18 11:30:02;;;;;;;;;;;;;;;25.65;63.77;100558.16;5001610;28;6513;-60
2022/08/18 11:32:32;;;;;;;;;;;;;;;25.63;63.64;100558.09;5002005;28;4594;-61
2022/08/18 11:35:10;;;;;;;;;;;;;;;25.65;63.80;100570.47;5001106;28;5210;-60
2022/08/18 11:37:40;;;;;;;;;;;;;;;25.64;63.72;100560.31;5001489;28;4205;-60
2022/08/18 11:40:34;;;;;;;;;;;;;;;25.65;63.69;100561.78;5001916;28;4035;-60
2022/08/18 11:43:26;;;;;;;;;;;;;;;25.65;63.75;100566.84;5000342;28;6139;-61
2022/08/18 11:46:11;;;;;;;;;;;;;;;25.65;63.68;100563.94;5001921;28;5223;-61
2022/08/18 11:48:46;;;;;;;;;;;;;;;25.64;63.66;100562.50;5000979;28;5386;-60
2022/08/18 11:51:20;;;;;;;;;;;;;;;25.66;63.70;100559.63;5002538;28;4001;-60
2022/08/18 11:53:53;;;;;;;;;;;;;;;25.66;63.85;100556.75;5001175;28;5276;-61
2022/08/18 11:56:39;;;;;;;;;;;;;;;25.64;63.65;100548.72;5000930;28;4259;-60
2022/08/18 11:59:06;;;;;;;;;;;;;;;25.65;63.73;100561.06;5001488;28;4554;-60
2022/08/18 12:01:33;;;;;;;;;;;;;;;25.66;63.58;100556.75;5001712;28;5672;-61
2022/08/18 12:04:08;;;;;;;;;;;;;;;25.66;63.81;100556.75;5001067;28;4260;-60
2022/08/18 12:06:36;;;;;;;;;;;;;;;25.66;63.78;100560.38;5000768;28;4325;-61
2022/08/18 12:09:16;;;;;;;;;;;;;;;25.66;63.72;100557.47;5005251;28;5257;-60
2022/08/18 12:12:12;;;;;;;;;;;;;;;25.65;63.66;100553.09;5000276;28;4233;-60
2022/08/18 12:14:52;;;;;;;;;;;;;;;25.66;63.76;100553.84;4999121;28;4359;-61
2022/08/18 12:17:28;;;;;;;;;;;;;;;25.65;63.67;100546.56;4999244;28;4163;-61
2022/08/18 12:19:56;;;;;;;;;;;;;;;25.64;63.87;100551.63;5001049;28;4489;-61
2022/08/18 12:22:25;;;;;;;;;;;;;;;25.68;63.61;100545.19;4999591;28;4057;-61
2022/08/18 12:24:51;;;;;;;;;;;;;;;25.66;63.69;100542.25;5000008;28;4625;-61
2022/08/18 12:27:18;;;;;;;;;;;;;;;25.66;63.78;100542.25;4998183;28;4708;-61
2022/08/18 12:29:47;;;;;;;;;;;;;;;25.68;63.63;100542.28;4999882;28;4168;-61
2022/08/18 12:32:15;;;;;;;;;;;;;;;25.68;63.68;100536.47;5001719;28;4388;-61
2022/08/18 12:35:01;;;;;;;;;;;;;;;25.68;63.63;100534.31;5000681;28;5484;-61
2022/08/18 12:37:36;;;;;;;;;;;;;;;25.68;63.63;100533.59;4997539;28;4291;-61
2022/08/18 12:40:22;;;;;;;;;;;;;;;25.68;63.72;100533.59;4999426;28;5588;-61
2022/08/18 12:42:49;;;;;;;;;;;;;;;25.68;63.71;100521.97;4999120;28;4247;-61
2022/08/18 12:45:16;;;;;;;;;;;;;;;25.72;63.54;100519.13;4999541;28;4166;-61
2022/08/18 12:47:42;;;;;;;;;;;;;;;25.70;63.73;100524.91;5000409;28;4194;-61
2022/08/18 12:50:09;;;;;;;;;;;;;;;25.71;63.68;100517.69;5001082;28;4316;-61
2022/08/18 12:52:35;;;;;;;;;;;;;;;25.75;63.59;100514.88;4999416;28;4560;-61
2022/08/18 12:55:07;;;;;;;;;;;;;;;25.73;63.77;100511.19;5000949;28;5344;-61
2022/08/18 12:57:46;;;;;;;;;;;;;;;25.71;63.88;100514.78;4999340;28;4135;-61
2022/08/18 13:00:19;;;;;;;;;;;;;;;25.72;64.01;100510.44;5001589;28;4274;-61
2022/08/18 13:02:53;;;;;;;;;;;;;;;25.71;64.01;100508.97;5000078;28;4134;-61
2022/08/18 13:05:20;;;;;;;;;;;;;;;25.72;64.13;100501.75;5000919;28;4532;-61
2022/08/18 13:07:57;;;;;;;;;;;;;;;25.72;64.05;100507.53;5000599;28;4214;-61
2022/08/18 13:10:24;;;;;;;;;;;;;;;25.73;64.03;100499.59;5000070;28;5309;-61
2022/08/18 13:13:10;;;;;;;;;;;;;;;25.71;63.97;100501.00;4999489;28;4342;-61
2022/08/18 13:15:37;;;;;;;;;;;;;;;25.72;63.98;100504.63;4998849;28;4310;-61
2022/08/18 13:18:04;;;;;;;;;;;;;;;25.73;63.90;100494.53;5000133;28;4148;-61
2022/08/18 13:20:30;;;;;;;;;;;;;;;25.73;63.95;100482.94;4999901;28;4566;-61
2022/08/18 13:22:56;;;;;;;;;;;;;;;25.73;64.04;100482.94;5000015;28;5646;-61
2022/08/18 13:25:23;;;;;;;;;;;;;;;25.73;63.93;100482.94;5000050;28;5279;-61
2022/08/18 13:27:59;;;;;;;;;;;;;;;25.73;64.04;100482.94;4999953;28;4185;-61